sensor_id;sensor_type;location;lat;lon;timestamp;P1;durP1;ratioP1;P2;durP2;ratioP2
42084;SDS011;27746;52.228;20.890;2022-10-31T00:00:07;21.38;;;12.75;;
42084;SDS011;27746;52.228;20.890;2022-10-31T00:02:34;22.23;;;13.27;;
42084;SDS011;27746;52.228;20.890;2022-10-31T00:05:01;19.58;;;12.40;;
42084;SDS011;27746;52.228;20.890;2022-10-31T00:07:30;24.77;;;13.95;;
42084;SDS011;27746;52.228;20.890;2022-10-31T00:09:57;24.38;;;14.02;;
42084;SDS011;27746;52.228;20.890;2022-10-31T00:12:23;23.42;;;14.82;;
42084;SDS011;27746;52.228;20.890;2022-10-31T00:14:51;25.85;;;16.15;;
42084;SDS011;27746;52.228;20.890;2022-10-31T00:17:18;31.73;;;18.35;;
42084;SDS011;27746;52.228;20.890;2022-10-31T00:19:45;29.50;;;19.77;;
42084;SDS011;27746;52.228;20.890;2022-10-31T00:22:12;30.58;;;19.23;;
42084;SDS011;27746;52.228;20.890;2022-10-31T00:24:40;30.33;;;19.23;;
42084;SDS011;27746;52.228;20.890;2022-10-31T00:27:07;31.40;;;18.65;;
42084;SDS011;27746;52.228;20.890;2022-10-31T00:29:34;30.58;;;19.40;;
42084;SDS011;27746;52.228;20.890;2022-10-31T00:32:01;28.27;;;18.27;;
42084;SDS011;27746;52.228;20.890;2022-10-31T00:34:27;30.20;;;20.48;;
42084;SDS011;27746;52.228;20.890;2022-10-31T00:36:54;33.05;;;20.15;;
42084;SDS011;27746;52.228;20.890;2022-10-31T00:39:21;33.65;;;21.23;;
42084;SDS011;27746;52.228;20.890;2022-10-31T00:41:49;36.53;;;22.13;;
42084;SDS011;27746;52.228;20.890;2022-10-31T00:44:16;32.33;;;21.13;;
42084;SDS011;27746;52.228;20.890;2022-10-31T00:46:43;38.08;;;24.35;;
42084;SDS011;27746;52.228;20.890;2022-10-31T00:49:10;38.47;;;24.65;;
42084;SDS011;27746;52.228;20.890;2022-10-31T00:51:37;37.13;;;23.60;;
42084;SDS011;27746;52.228;20.890;2022-10-31T00:54:04;38.03;;;25.25;;
42084;SDS011;27746;52.228;20.890;2022-10-31T00:56:31;38.95;;;24.38;;
42084;SDS011;27746;52.228;20.890;2022-10-31T00:58:59;37.92;;;24.98;;
42084;SDS011;27746;52.228;20.890;2022-10-31T01:01:26;42.47;;;27.15;;
42084;SDS011;27746;52.228;20.890;2022-10-31T01:03:53;37.85;;;24.60;;
42084;SDS011;27746;52.228;20.890;2022-10-31T01:06:20;40.17;;;25.23;;
42084;SDS011;27746;52.228;20.890;2022-10-31T01:08:47;35.55;;;24.10;;
42084;SDS011;27746;52.228;20.890;2022-10-31T01:11:15;40.30;;;23.80;;
42084;SDS011;27746;52.228;20.890;2022-10-31T01:13:43;34.08;;;23.10;;
42084;SDS011;27746;52.228;20.890;2022-10-31T01:16:13;37.30;;;23.27;;
42084;SDS011;27746;52.228;20.890;2022-10-31T01:18:41;31.20;;;20.73;;
42084;SDS011;27746;52.228;20.890;2022-10-31T01:21:09;36.42;;;21.80;;
42084;SDS011;27746;52.228;20.890;2022-10-31T01:23:37;32.40;;;21.20;;
42084;SDS011;27746;52.228;20.890;2022-10-31T01:26:05;36.90;;;22.17;;
42084;SDS011;27746;52.228;20.890;2022-10-31T01:28:34;34.45;;;20.88;;
42084;SDS011;27746;52.228;20.890;2022-10-31T01:31:03;30.40;;;20.63;;
42084;SDS011;27746;52.228;20.890;2022-10-31T01:33:33;31.45;;;20.70;;
42084;SDS011;27746;52.228;20.890;2022-10-31T01:36:01;36.63;;;22.25;;
42084;SDS011;27746;52.228;20.890;2022-10-31T01:38:38;35.63;;;22.35;;
42084;SDS011;27746;52.228;20.890;2022-10-31T01:41:05;33.95;;;22.48;;
42084;SDS011;27746;52.228;20.890;2022-10-31T01:43:41;39.20;;;23.58;;
42084;SDS011;27746;52.228;20.890;2022-10-31T01:46:13;34.60;;;23.10;;
42084;SDS011;27746;52.228;20.890;2022-10-31T01:48:44;39.58;;;23.00;;
42084;SDS011;27746;52.228;20.890;2022-10-31T01:51:12;36.90;;;23.38;;
42084;SDS011;27746;52.228;20.890;2022-10-31T01:53:41;35.00;;;24.23;;
42084;SDS011;27746;52.228;20.890;2022-10-31T01:56:10;34.25;;;24.17;;
42084;SDS011;27746;52.228;20.890;2022-10-31T01:58:39;40.53;;;26.15;;
42084;SDS011;27746;52.228;20.890;2022-10-31T02:01:06;34.70;;;22.33;;
42084;SDS011;27746;52.228;20.890;2022-10-31T02:03:33;34.53;;;23.10;;
42084;SDS011;27746;52.228;20.890;2022-10-31T02:06:02;36.25;;;22.85;;
42084;SDS011;27746;52.228;20.890;2022-10-31T02:08:33;37.47;;;24.38;;
42084;SDS011;27746;52.228;20.890;2022-10-31T02:11:01;40.47;;;24.42;;
42084;SDS011;27746;52.228;20.890;2022-10-31T02:13:28;37.28;;;22.90;;
42084;SDS011;27746;52.228;20.890;2022-10-31T02:15:56;32.28;;;21.98;;
42084;SDS011;27746;52.228;20.890;2022-10-31T02:18:24;39.38;;;21.92;;
42084;SDS011;27746;52.228;20.890;2022-10-31T02:20:56;35.05;;;21.73;;
42084;SDS011;27746;52.228;20.890;2022-10-31T02:23:49;34.13;;;22.25;;
42084;SDS011;27746;52.228;20.890;2022-10-31T02:26:49;33.58;;;22.33;;
42084;SDS011;27746;52.228;20.890;2022-10-31T02:29:37;33.92;;;22.35;;
42084;SDS011;27746;52.228;20.890;2022-10-31T02:32:27;30.95;;;20.30;;
42084;SDS011;27746;52.228;20.890;2022-10-31T02:35:03;34.05;;;21.27;;
42084;SDS011;27746;52.228;20.890;2022-10-31T02:37:37;29.92;;;20.55;;
42084;SDS011;27746;52.228;20.890;2022-10-31T02:40:10;35.80;;;21.85;;
42084;SDS011;27746;52.228;20.890;2022-10-31T02:42:44;36.55;;;21.60;;
42084;SDS011;27746;52.228;20.890;2022-10-31T02:45:19;35.58;;;22.80;;
42084;SDS011;27746;52.228;20.890;2022-10-31T02:47:52;35.55;;;20.63;;
42084;SDS011;27746;52.228;20.890;2022-10-31T02:50:22;32.40;;;21.95;;
42084;SDS011;27746;52.228;20.890;2022-10-31T02:52:54;35.20;;;21.08;;
42084;SDS011;27746;52.228;20.890;2022-10-31T02:55:44;31.83;;;22.13;;
42084;SDS011;27746;52.228;20.890;2022-10-31T03:00:47;34.33;;;22.05;;
42084;SDS011;27746;52.228;20.890;2022-10-31T03:03:36;37.63;;;21.75;;
42084;SDS011;27746;52.228;20.890;2022-10-31T03:06:17;37.67;;;22.77;;
42084;SDS011;27746;52.228;20.890;2022-10-31T03:08:54;40.05;;;23.98;;
42084;SDS011;27746;52.228;20.890;2022-10-31T03:11:28;37.35;;;23.80;;
42084;SDS011;27746;52.228;20.890;2022-10-31T03:14:00;31.65;;;21.65;;
42084;SDS011;27746;52.228;20.890;2022-10-31T03:16:34;30.35;;;21.30;;
42084;SDS011;27746;52.228;20.890;2022-10-31T03:19:09;35.20;;;22.77;;
42084;SDS011;27746;52.228;20.890;2022-10-31T03:21:40;34.95;;;22.30;;
42084;SDS011;27746;52.228;20.890;2022-10-31T03:24:13;32.30;;;21.45;;
42084;SDS011;27746;52.228;20.890;2022-10-31T03:26:41;34.78;;;22.08;;
42084;SDS011;27746;52.228;20.890;2022-10-31T03:29:12;34.58;;;20.27;;
42084;SDS011;27746;52.228;20.890;2022-10-31T03:31:42;38.05;;;22.80;;
42084;SDS011;27746;52.228;20.890;2022-10-31T03:36:44;31.25;;;19.85;;
42084;SDS011;27746;52.228;20.890;2022-10-31T03:39:13;36.35;;;20.30;;
42084;SDS011;27746;52.228;20.890;2022-10-31T03:41:42;33.38;;;20.90;;
42084;SDS011;27746;52.228;20.890;2022-10-31T03:44:14;38.03;;;22.23;;
42084;SDS011;27746;52.228;20.890;2022-10-31T03:46:43;40.30;;;22.77;;
42084;SDS011;27746;52.228;20.890;2022-10-31T03:49:11;32.70;;;21.90;;
42084;SDS011;27746;52.228;20.890;2022-10-31T03:51:42;34.88;;;22.67;;
42084;SDS011;27746;52.228;20.890;2022-10-31T03:54:16;32.67;;;22.17;;
42084;SDS011;27746;52.228;20.890;2022-10-31T03:56:49;35.28;;;22.95;;
42084;SDS011;27746;52.228;20.890;2022-10-31T03:59:20;35.55;;;23.60;;
42084;SDS011;27746;52.228;20.890;2022-10-31T04:01:52;37.55;;;24.08;;
42084;SDS011;27746;52.228;20.890;2022-10-31T04:04:22;33.90;;;23.52;;
42084;SDS011;27746;52.228;20.890;2022-10-31T04:06:52;38.78;;;23.38;;
42084;SDS011;27746;52.228;20.890;2022-10-31T04:09:22;36.10;;;22.45;;
42084;SDS011;27746;52.228;20.890;2022-10-31T04:11:52;32.35;;;21.77;;
42084;SDS011;27746;52.228;20.890;2022-10-31T04:14:21;35.45;;;24.02;;
42084;SDS011;27746;52.228;20.890;2022-10-31T04:16:50;35.58;;;24.05;;
42084;SDS011;27746;52.228;20.890;2022-10-31T04:19:18;36.88;;;23.17;;
42084;SDS011;27746;52.228;20.890;2022-10-31T04:21:45;38.10;;;23.38;;
42084;SDS011;27746;52.228;20.890;2022-10-31T04:24:13;37.80;;;23.75;;
42084;SDS011;27746;52.228;20.890;2022-10-31T04:26:40;34.50;;;23.98;;
42084;SDS011;27746;52.228;20.890;2022-10-31T04:29:07;37.83;;;23.92;;
42084;SDS011;27746;52.228;20.890;2022-10-31T04:31:34;39.25;;;23.63;;
42084;SDS011;27746;52.228;20.890;2022-10-31T04:34:01;34.20;;;24.35;;
42084;SDS011;27746;52.228;20.890;2022-10-31T04:36:27;35.75;;;22.63;;
42084;SDS011;27746;52.228;20.890;2022-10-31T04:38:54;34.83;;;22.45;;
42084;SDS011;27746;52.228;20.890;2022-10-31T04:41:23;34.03;;;22.45;;
42084;SDS011;27746;52.228;20.890;2022-10-31T04:43:50;36.05;;;22.55;;
42084;SDS011;27746;52.228;20.890;2022-10-31T04:46:16;33.72;;;22.58;;
42084;SDS011;27746;52.228;20.890;2022-10-31T04:48:43;33.17;;;22.27;;
42084;SDS011;27746;52.228;20.890;2022-10-31T04:51:10;35.78;;;22.45;;
42084;SDS011;27746;52.228;20.890;2022-10-31T04:53:37;33.35;;;23.80;;
42084;SDS011;27746;52.228;20.890;2022-10-31T04:56:04;34.00;;;23.05;;
42084;SDS011;27746;52.228;20.890;2022-10-31T04:58:33;34.10;;;21.48;;
42084;SDS011;27746;52.228;20.890;2022-10-31T05:01:00;36.63;;;22.77;;
42084;SDS011;27746;52.228;20.890;2022-10-31T05:03:26;32.13;;;21.20;;
42084;SDS011;27746;52.228;20.890;2022-10-31T05:05:53;32.03;;;22.05;;
42084;SDS011;27746;52.228;20.890;2022-10-31T05:08:20;34.53;;;21.17;;
42084;SDS011;27746;52.228;20.890;2022-10-31T05:10:47;33.58;;;21.13;;
42084;SDS011;27746;52.228;20.890;2022-10-31T05:13:15;36.38;;;22.65;;
42084;SDS011;27746;52.228;20.890;2022-10-31T05:15:43;36.72;;;22.23;;
42084;SDS011;27746;52.228;20.890;2022-10-31T05:18:10;37.55;;;21.58;;
42084;SDS011;27746;52.228;20.890;2022-10-31T05:20:37;33.05;;;22.45;;
42084;SDS011;27746;52.228;20.890;2022-10-31T05:23:04;33.45;;;21.05;;
42084;SDS011;27746;52.228;20.890;2022-10-31T05:25:31;34.50;;;23.23;;
42084;SDS011;27746;52.228;20.890;2022-10-31T05:27:58;37.20;;;21.58;;
42084;SDS011;27746;52.228;20.890;2022-10-31T05:30:25;32.78;;;20.95;;
42084;SDS011;27746;52.228;20.890;2022-10-31T05:32:55;32.80;;;21.25;;
42084;SDS011;27746;52.228;20.890;2022-10-31T05:35:23;31.33;;;21.00;;
42084;SDS011;27746;52.228;20.890;2022-10-31T05:37:51;36.60;;;21.15;;
42084;SDS011;27746;52.228;20.890;2022-10-31T05:40:18;33.28;;;21.00;;
42084;SDS011;27746;52.228;20.890;2022-10-31T05:42:46;34.60;;;20.38;;
42084;SDS011;27746;52.228;20.890;2022-10-31T05:45:16;30.00;;;19.80;;
42084;SDS011;27746;52.228;20.890;2022-10-31T05:47:49;30.05;;;19.85;;
42084;SDS011;27746;52.228;20.890;2022-10-31T05:50:18;27.67;;;18.00;;
42084;SDS011;27746;52.228;20.890;2022-10-31T05:52:47;28.52;;;18.73;;
42084;SDS011;27746;52.228;20.890;2022-10-31T05:55:19;32.10;;;20.85;;
42084;SDS011;27746;52.228;20.890;2022-10-31T05:57:46;33.20;;;20.55;;
42084;SDS011;27746;52.228;20.890;2022-10-31T06:00:13;27.63;;;19.17;;
42084;SDS011;27746;52.228;20.890;2022-10-31T06:02:40;30.35;;;19.10;;
42084;SDS011;27746;52.228;20.890;2022-10-31T06:05:07;31.77;;;20.23;;
42084;SDS011;27746;52.228;20.890;2022-10-31T06:07:36;30.73;;;18.50;;
42084;SDS011;27746;52.228;20.890;2022-10-31T06:10:04;28.30;;;18.20;;
42084;SDS011;27746;52.228;20.890;2022-10-31T06:12:32;29.80;;;19.25;;
42084;SDS011;27746;52.228;20.890;2022-10-31T06:15:02;32.17;;;20.80;;
42084;SDS011;27746;52.228;20.890;2022-10-31T06:17:30;33.38;;;20.33;;
42084;SDS011;27746;52.228;20.890;2022-10-31T06:19:57;30.75;;;19.08;;
42084;SDS011;27746;52.228;20.890;2022-10-31T06:22:24;28.80;;;17.80;;
42084;SDS011;27746;52.228;20.890;2022-10-31T06:24:52;34.25;;;20.30;;
42084;SDS011;27746;52.228;20.890;2022-10-31T06:27:19;27.45;;;18.17;;
42084;SDS011;27746;52.228;20.890;2022-10-31T06:29:46;27.77;;;18.52;;
42084;SDS011;27746;52.228;20.890;2022-10-31T06:32:13;31.52;;;19.05;;
42084;SDS011;27746;52.228;20.890;2022-10-31T06:34:41;28.70;;;19.30;;
42084;SDS011;27746;52.228;20.890;2022-10-31T06:37:09;33.88;;;19.85;;
42084;SDS011;27746;52.228;20.890;2022-10-31T06:39:37;36.22;;;21.25;;
42084;SDS011;27746;52.228;20.890;2022-10-31T06:42:06;26.70;;;18.45;;
42084;SDS011;27746;52.228;20.890;2022-10-31T06:44:33;33.28;;;18.88;;
42084;SDS011;27746;52.228;20.890;2022-10-31T06:47:00;24.70;;;17.45;;
42084;SDS011;27746;52.228;20.890;2022-10-31T06:49:26;24.75;;;16.38;;
42084;SDS011;27746;52.228;20.890;2022-10-31T06:51:53;29.52;;;17.48;;
42084;SDS011;27746;52.228;20.890;2022-10-31T06:54:20;27.80;;;17.35;;
42084;SDS011;27746;52.228;20.890;2022-10-31T06:56:47;28.00;;;18.38;;
42084;SDS011;27746;52.228;20.890;2022-10-31T06:59:16;25.67;;;18.25;;
42084;SDS011;27746;52.228;20.890;2022-10-31T07:01:43;31.10;;;18.02;;
42084;SDS011;27746;52.228;20.890;2022-10-31T07:04:10;27.05;;;16.95;;
42084;SDS011;27746;52.228;20.890;2022-10-31T07:06:37;25.30;;;16.80;;
42084;SDS011;27746;52.228;20.890;2022-10-31T07:09:04;25.60;;;16.45;;
42084;SDS011;27746;52.228;20.890;2022-10-31T07:11:31;24.35;;;15.70;;
42084;SDS011;27746;52.228;20.890;2022-10-31T07:13:58;25.38;;;16.63;;
42084;SDS011;27746;52.228;20.890;2022-10-31T07:16:26;28.10;;;17.27;;
42084;SDS011;27746;52.228;20.890;2022-10-31T07:18:53;24.60;;;15.95;;
42084;SDS011;27746;52.228;20.890;2022-10-31T07:21:20;30.00;;;16.15;;
42084;SDS011;27746;52.228;20.890;2022-10-31T07:23:47;24.88;;;15.50;;
42084;SDS011;27746;52.228;20.890;2022-10-31T07:26:14;25.27;;;15.32;;
42084;SDS011;27746;52.228;20.890;2022-10-31T07:28:41;25.38;;;16.08;;
42084;SDS011;27746;52.228;20.890;2022-10-31T07:31:08;22.45;;;15.20;;
42084;SDS011;27746;52.228;20.890;2022-10-31T07:33:37;21.15;;;14.75;;
42084;SDS011;27746;52.228;20.890;2022-10-31T07:36:04;23.13;;;15.32;;
42084;SDS011;27746;52.228;20.890;2022-10-31T07:38:31;26.15;;;15.77;;
42084;SDS011;27746;52.228;20.890;2022-10-31T07:40:58;24.15;;;14.30;;
42084;SDS011;27746;52.228;20.890;2022-10-31T07:43:25;24.15;;;14.63;;
42084;SDS011;27746;52.228;20.890;2022-10-31T07:45:52;23.08;;;14.80;;
42084;SDS011;27746;52.228;20.890;2022-10-31T07:48:20;27.13;;;13.98;;
42084;SDS011;27746;52.228;20.890;2022-10-31T07:50:48;21.15;;;13.40;;
42084;SDS011;27746;52.228;20.890;2022-10-31T07:53:15;18.05;;;12.18;;
42084;SDS011;27746;52.228;20.890;2022-10-31T07:55:42;17.55;;;11.70;;
42084;SDS011;27746;52.228;20.890;2022-10-31T07:58:10;19.38;;;12.27;;
42084;SDS011;27746;52.228;20.890;2022-10-31T08:00:40;18.35;;;11.25;;
42084;SDS011;27746;52.228;20.890;2022-10-31T08:03:09;20.17;;;11.45;;
42084;SDS011;27746;52.228;20.890;2022-10-31T08:05:36;16.23;;;11.10;;
42084;SDS011;27746;52.228;20.890;2022-10-31T08:08:07;17.13;;;10.30;;
42084;SDS011;27746;52.228;20.890;2022-10-31T08:10:35;17.55;;;10.95;;
42084;SDS011;27746;52.228;20.890;2022-10-31T08:13:03;21.10;;;12.50;;
42084;SDS011;27746;52.228;20.890;2022-10-31T08:15:31;18.95;;;12.45;;
42084;SDS011;27746;52.228;20.890;2022-10-31T08:17:59;18.30;;;11.80;;
42084;SDS011;27746;52.228;20.890;2022-10-31T08:20:27;17.45;;;10.80;;
42084;SDS011;27746;52.228;20.890;2022-10-31T08:22:57;17.90;;;9.98;;
42084;SDS011;27746;52.228;20.890;2022-10-31T08:25:27;17.25;;;10.27;;
42084;SDS011;27746;52.228;20.890;2022-10-31T08:27:55;16.10;;;10.00;;
42084;SDS011;27746;52.228;20.890;2022-10-31T08:30:23;16.75;;;10.73;;
42084;SDS011;27746;52.228;20.890;2022-10-31T08:33:00;15.13;;;10.05;;
42084;SDS011;27746;52.228;20.890;2022-10-31T08:35:29;13.57;;;9.80;;
42084;SDS011;27746;52.228;20.890;2022-10-31T08:37:57;17.65;;;10.23;;
42084;SDS011;27746;52.228;20.890;2022-10-31T08:40:26;15.02;;;11.02;;
42084;SDS011;27746;52.228;20.890;2022-10-31T08:42:58;16.88;;;10.48;;
42084;SDS011;27746;52.228;20.890;2022-10-31T08:45:25;15.10;;;10.35;;
42084;SDS011;27746;52.228;20.890;2022-10-31T08:47:56;15.65;;;11.27;;
42084;SDS011;27746;52.228;20.890;2022-10-31T08:50:23;14.23;;;10.30;;
42084;SDS011;27746;52.228;20.890;2022-10-31T08:52:50;14.40;;;9.95;;
42084;SDS011;27746;52.228;20.890;2022-10-31T08:55:17;14.27;;;10.73;;
42084;SDS011;27746;52.228;20.890;2022-10-31T08:57:46;15.77;;;10.82;;
42084;SDS011;27746;52.228;20.890;2022-10-31T09:00:13;16.98;;;11.00;;
42084;SDS011;27746;52.228;20.890;2022-10-31T09:02:40;14.82;;;10.52;;
42084;SDS011;27746;52.228;20.890;2022-10-31T09:05:07;15.20;;;10.43;;
42084;SDS011;27746;52.228;20.890;2022-10-31T09:07:34;14.65;;;10.23;;
42084;SDS011;27746;52.228;20.890;2022-10-31T09:10:01;13.77;;;10.63;;
42084;SDS011;27746;52.228;20.890;2022-10-31T09:12:28;17.48;;;11.07;;
42084;SDS011;27746;52.228;20.890;2022-10-31T09:14:56;14.98;;;10.10;;
42084;SDS011;27746;52.228;20.890;2022-10-31T09:17:25;18.15;;;11.45;;
42084;SDS011;27746;52.228;20.890;2022-10-31T09:19:55;14.43;;;9.95;;
42084;SDS011;27746;52.228;20.890;2022-10-31T09:22:22;13.18;;;9.98;;
42084;SDS011;27746;52.228;20.890;2022-10-31T09:24:49;16.35;;;10.52;;
42084;SDS011;27746;52.228;20.890;2022-10-31T09:27:16;14.98;;;11.10;;
42084;SDS011;27746;52.228;20.890;2022-10-31T09:29:43;15.80;;;10.90;;
42084;SDS011;27746;52.228;20.890;2022-10-31T09:32:11;13.43;;;10.35;;
42084;SDS011;27746;52.228;20.890;2022-10-31T09:34:38;14.50;;;10.02;;
42084;SDS011;27746;52.228;20.890;2022-10-31T09:37:05;14.25;;;10.30;;
42084;SDS011;27746;52.228;20.890;2022-10-31T09:39:32;13.82;;;10.48;;
42084;SDS011;27746;52.228;20.890;2022-10-31T09:42:02;17.15;;;10.75;;
42084;SDS011;27746;52.228;20.890;2022-10-31T09:44:42;11.77;;;8.85;;
42084;SDS011;27746;52.228;20.890;2022-10-31T09:47:19;12.40;;;10.52;;
42084;SDS011;27746;52.228;20.890;2022-10-31T09:49:55;12.15;;;10.07;;
42084;SDS011;27746;52.228;20.890;2022-10-31T09:52:40;12.85;;;10.15;;
42084;SDS011;27746;52.228;20.890;2022-10-31T09:55:13;13.88;;;9.95;;
42084;SDS011;27746;52.228;20.890;2022-10-31T09:57:44;12.30;;;11.00;;
42084;SDS011;27746;52.228;20.890;2022-10-31T10:00:14;14.65;;;11.10;;
42084;SDS011;27746;52.228;20.890;2022-10-31T10:02:46;14.77;;;11.43;;
42084;SDS011;27746;52.228;20.890;2022-10-31T10:05:18;15.57;;;12.38;;
42084;SDS011;27746;52.228;20.890;2022-10-31T10:10:23;15.30;;;10.15;;
42084;SDS011;27746;52.228;20.890;2022-10-31T10:13:12;14.02;;;11.25;;
42084;SDS011;27746;52.228;20.890;2022-10-31T10:15:59;13.27;;;11.30;;
42084;SDS011;27746;52.228;20.890;2022-10-31T10:18:38;14.52;;;11.57;;
42084;SDS011;27746;52.228;20.890;2022-10-31T10:21:21;15.20;;;11.15;;
42084;SDS011;27746;52.228;20.890;2022-10-31T10:23:57;16.73;;;12.25;;
42084;SDS011;27746;52.228;20.890;2022-10-31T10:26:34;15.25;;;11.02;;
42084;SDS011;27746;52.228;20.890;2022-10-31T10:29:16;14.63;;;10.60;;
42084;SDS011;27746;52.228;20.890;2022-10-31T10:31:51;17.60;;;11.60;;
42084;SDS011;27746;52.228;20.890;2022-10-31T10:34:22;15.43;;;11.95;;
42084;SDS011;27746;52.228;20.890;2022-10-31T10:36:54;18.85;;;12.82;;
42084;SDS011;27746;52.228;20.890;2022-10-31T10:39:27;17.85;;;13.15;;
42084;SDS011;27746;52.228;20.890;2022-10-31T10:41:59;15.57;;;12.00;;
42084;SDS011;27746;52.228;20.890;2022-10-31T10:44:45;18.65;;;13.35;;
42084;SDS011;27746;52.228;20.890;2022-10-31T10:47:33;17.83;;;12.73;;
42084;SDS011;27746;52.228;20.890;2022-10-31T10:50:09;15.82;;;12.35;;
42084;SDS011;27746;52.228;20.890;2022-10-31T10:52:42;17.33;;;14.18;;
42084;SDS011;27746;52.228;20.890;2022-10-31T10:55:21;18.50;;;14.70;;
42084;SDS011;27746;52.228;20.890;2022-10-31T10:57:58;19.00;;;14.50;;
42084;SDS011;27746;52.228;20.890;2022-10-31T11:00:29;17.65;;;13.88;;
42084;SDS011;27746;52.228;20.890;2022-10-31T11:02:57;19.42;;;13.25;;
42084;SDS011;27746;52.228;20.890;2022-10-31T11:05:28;19.23;;;14.02;;
42084;SDS011;27746;52.228;20.890;2022-10-31T11:07:59;20.23;;;14.43;;
42084;SDS011;27746;52.228;20.890;2022-10-31T11:10:26;19.08;;;15.00;;
42084;SDS011;27746;52.228;20.890;2022-10-31T11:13:00;20.50;;;14.32;;
42084;SDS011;27746;52.228;20.890;2022-10-31T11:15:31;19.02;;;14.85;;
42084;SDS011;27746;52.228;20.890;2022-10-31T11:18:03;21.67;;;12.77;;
42084;SDS011;27746;52.228;20.890;2022-10-31T11:20:32;19.05;;;12.68;;
42084;SDS011;27746;52.228;20.890;2022-10-31T11:23:05;19.10;;;12.77;;
42084;SDS011;27746;52.228;20.890;2022-10-31T11:25:47;17.88;;;13.73;;
42084;SDS011;27746;52.228;20.890;2022-10-31T11:28:16;19.73;;;14.63;;
42084;SDS011;27746;52.228;20.890;2022-10-31T11:30:44;21.00;;;15.07;;
42084;SDS011;27746;52.228;20.890;2022-10-31T11:35:45;16.63;;;13.90;;
42084;SDS011;27746;52.228;20.890;2022-10-31T11:38:15;18.88;;;15.13;;
42084;SDS011;27746;52.228;20.890;2022-10-31T11:40:56;18.83;;;13.68;;
42084;SDS011;27746;52.228;20.890;2022-10-31T11:43:26;20.75;;;14.38;;
42084;SDS011;27746;52.228;20.890;2022-10-31T11:45:53;18.92;;;14.30;;
42084;SDS011;27746;52.228;20.890;2022-10-31T11:48:21;18.73;;;14.32;;
42084;SDS011;27746;52.228;20.890;2022-10-31T11:50:52;19.83;;;14.02;;
42084;SDS011;27746;52.228;20.890;2022-10-31T11:53:24;20.85;;;14.02;;
42084;SDS011;27746;52.228;20.890;2022-10-31T11:56:03;24.23;;;15.70;;
42084;SDS011;27746;52.228;20.890;2022-10-31T11:58:36;19.15;;;13.90;;
42084;SDS011;27746;52.228;20.890;2022-10-31T12:01:03;19.33;;;13.68;;
42084;SDS011;27746;52.228;20.890;2022-10-31T12:03:34;19.33;;;14.13;;
42084;SDS011;27746;52.228;20.890;2022-10-31T12:06:13;20.98;;;14.40;;
42084;SDS011;27746;52.228;20.890;2022-10-31T12:08:45;17.63;;;13.75;;
42084;SDS011;27746;52.228;20.890;2022-10-31T12:11:17;18.90;;;14.63;;
42084;SDS011;27746;52.228;20.890;2022-10-31T12:14:05;20.05;;;14.40;;
42084;SDS011;27746;52.228;20.890;2022-10-31T12:16:42;24.98;;;15.75;;
42084;SDS011;27746;52.228;20.890;2022-10-31T12:19:16;21.60;;;14.27;;
42084;SDS011;27746;52.228;20.890;2022-10-31T12:21:57;17.58;;;12.68;;
42084;SDS011;27746;52.228;20.890;2022-10-31T12:24:33;25.23;;;14.93;;
42084;SDS011;27746;52.228;20.890;2022-10-31T12:27:12;21.90;;;14.73;;
42084;SDS011;27746;52.228;20.890;2022-10-31T12:29:52;26.48;;;15.45;;
42084;SDS011;27746;52.228;20.890;2022-10-31T12:32:32;18.98;;;13.70;;
42084;SDS011;27746;52.228;20.890;2022-10-31T12:35:16;22.98;;;13.98;;
42084;SDS011;27746;52.228;20.890;2022-10-31T12:38:09;20.55;;;15.02;;
42084;SDS011;27746;52.228;20.890;2022-10-31T12:43:52;22.20;;;14.98;;
42084;SDS011;27746;52.228;20.890;2022-10-31T12:46:25;25.40;;;16.63;;
42084;SDS011;27746;52.228;20.890;2022-10-31T12:49:09;20.23;;;14.40;;
42084;SDS011;27746;52.228;20.890;2022-10-31T12:54:22;21.42;;;16.70;;
42084;SDS011;27746;52.228;20.890;2022-10-31T12:57:09;23.25;;;15.82;;
42084;SDS011;27746;52.228;20.890;2022-10-31T12:59:44;24.20;;;17.48;;
42084;SDS011;27746;52.228;20.890;2022-10-31T13:02:16;21.55;;;16.75;;
42084;SDS011;27746;52.228;20.890;2022-10-31T13:04:47;21.73;;;16.63;;
42084;SDS011;27746;52.228;20.890;2022-10-31T13:07:18;22.23;;;16.23;;
42084;SDS011;27746;52.228;20.890;2022-10-31T13:09:52;24.70;;;18.10;;
42084;SDS011;27746;52.228;20.890;2022-10-31T13:12:26;24.75;;;16.40;;
42084;SDS011;27746;52.228;20.890;2022-10-31T13:14:57;20.90;;;16.25;;
42084;SDS011;27746;52.228;20.890;2022-10-31T13:17:30;25.40;;;17.65;;
42084;SDS011;27746;52.228;20.890;2022-10-31T13:20:04;27.05;;;19.75;;
42084;SDS011;27746;52.228;20.890;2022-10-31T13:22:40;25.67;;;17.45;;
42084;SDS011;27746;52.228;20.890;2022-10-31T13:25:13;27.85;;;19.67;;
42084;SDS011;27746;52.228;20.890;2022-10-31T13:27:44;31.00;;;19.38;;
42084;SDS011;27746;52.228;20.890;2022-10-31T13:30:16;25.92;;;19.00;;
42084;SDS011;27746;52.228;20.890;2022-10-31T13:32:46;27.08;;;17.63;;
42084;SDS011;27746;52.228;20.890;2022-10-31T13:35:19;28.70;;;19.95;;
42084;SDS011;27746;52.228;20.890;2022-10-31T13:37:52;31.60;;;22.25;;
42084;SDS011;27746;52.228;20.890;2022-10-31T13:40:35;31.50;;;21.52;;
42084;SDS011;27746;52.228;20.890;2022-10-31T13:43:11;30.08;;;20.23;;
42084;SDS011;27746;52.228;20.890;2022-10-31T13:45:49;40.38;;;23.92;;
42084;SDS011;27746;52.228;20.890;2022-10-31T13:48:18;38.05;;;24.90;;
42084;SDS011;27746;52.228;20.890;2022-10-31T13:51:02;33.85;;;23.30;;
42084;SDS011;27746;52.228;20.890;2022-10-31T13:53:36;39.92;;;23.90;;
42084;SDS011;27746;52.228;20.890;2022-10-31T13:56:10;37.38;;;22.58;;
42084;SDS011;27746;52.228;20.890;2022-10-31T13:59:00;33.17;;;21.08;;
42084;SDS011;27746;52.228;20.890;2022-10-31T14:01:30;34.97;;;21.98;;
42084;SDS011;27746;52.228;20.890;2022-10-31T14:04:02;32.30;;;21.45;;
42084;SDS011;27746;52.228;20.890;2022-10-31T14:06:36;37.58;;;23.65;;
42084;SDS011;27746;52.228;20.890;2022-10-31T14:09:05;34.67;;;21.42;;
42084;SDS011;27746;52.228;20.890;2022-10-31T14:11:46;37.47;;;21.80;;
42084;SDS011;27746;52.228;20.890;2022-10-31T14:14:14;37.55;;;21.85;;
42084;SDS011;27746;52.228;20.890;2022-10-31T14:16:42;35.17;;;22.17;;
42084;SDS011;27746;52.228;20.890;2022-10-31T14:19:13;40.85;;;23.63;;
42084;SDS011;27746;52.228;20.890;2022-10-31T14:21:43;33.83;;;21.17;;
42084;SDS011;27746;52.228;20.890;2022-10-31T14:24:14;37.85;;;22.90;;
42084;SDS011;27746;52.228;20.890;2022-10-31T14:26:58;36.72;;;21.73;;
42084;SDS011;27746;52.228;20.890;2022-10-31T14:29:26;55.70;;;24.80;;
42084;SDS011;27746;52.228;20.890;2022-10-31T14:31:56;41.25;;;21.95;;
42084;SDS011;27746;52.228;20.890;2022-10-31T14:34:36;43.22;;;25.13;;
42084;SDS011;27746;52.228;20.890;2022-10-31T14:40:18;45.95;;;25.40;;
42084;SDS011;27746;52.228;20.890;2022-10-31T14:45:52;43.63;;;26.00;;
42084;SDS011;27746;52.228;20.890;2022-10-31T14:48:30;48.83;;;24.77;;
42084;SDS011;27746;52.228;20.890;2022-10-31T14:51:25;52.28;;;26.13;;